Time;durP1;ratioP1;P1;durP2;ratioP2;P2;SDS_P1;SDS_P2;PMS_P1;PMS_P2;Temp;Humidity;BMP_temperature;BMP_pressure;BME280_temperature;BME280_humidity;BME280_pressure;Samples;Min_cycle;Max_cycle;Signal;HPM_P1;HPM_P2
2023/07/02 00:02:23;;;;;;;6.50;2.38;;;15.90;99.90;;;;;;4966766;28;20086;-36
2023/07/02 00:04:49;;;;;;;8.40;2.70;;;15.90;99.90;;;;;;4972032;28;20662;-36
2023/07/02 00:07:14;;;;;;;10.55;2.53;;;15.90;99.90;;;;;;4967664;28;20051;-36
2023/07/02 00:09:40;;;;;;;10.75;3.08;;;15.90;99.90;;;;;;4971213;28;20058;-36
2023/07/02 00:12:06;;;;;;;9.45;2.42;;;15.90;99.90;;;;;;4969806;28;20496;-36
2023/07/02 00:14:32;;;;;;;10.82;3.05;;;15.90;99.90;;;;;;4991446;28;20137;-36
2023/07/02 00:16:59;;;;;;;11.65;2.88;;;15.90;99.90;;;;;;4989796;28;20134;-36
2023/07/02 00:19:25;;;;;;;9.60;3.03;;;15.90;99.90;;;;;;4982790;28;20639;-36
2023/07/02 00:21:53;;;;;;;7.65;2.90;;;15.90;99.90;;;;;;4976550;28;20051;-38
2023/07/02 00:24:19;;;;;;;9.40;2.78;;;15.80;99.90;;;;;;4967429;28;20078;-36
2023/07/02 00:26:44;;;;;;;10.77;3.38;;;15.80;99.90;;;;;;4968322;28;20074;-36
2023/07/02 00:29:10;;;;;;;16.98;4.20;;;15.70;99.90;;;;;;4969874;28;21182;-36
2023/07/02 00:31:36;;;;;;;9.75;3.47;;;15.70;99.90;;;;;;4971033;28;20058;-41
2023/07/02 00:34:02;;;;;;;10.57;3.22;;;15.70;99.90;;;;;;4983248;28;20076;-36
2023/07/02 00:36:28;;;;;;;9.38;3.05;;;15.60;99.90;;;;;;4970559;28;20059;-37
2023/07/02 00:38:54;;;;;;;12.18;3.95;;;15.60;99.90;;;;;;4969330;28;20059;-36
2023/07/02 00:41:20;;;;;;;7.90;3.13;;;15.60;99.90;;;;;;4973175;28;20050;-36
2023/07/02 00:43:46;;;;;;;9.40;3.33;;;15.50;99.90;;;;;;4974014;28;20051;-36
2023/07/02 00:46:17;;;;;;;9.05;3.10;;;15.50;99.90;;;;;;4970599;28;20070;-36
2023/07/02 00:48:47;;;;;;;14.20;3.45;;;15.50;99.90;;;;;;4969368;28;20059;-36
2023/07/02 00:51:20;;;;;;;10.85;4.00;;;15.40;99.90;;;;;;4967114;28;20097;-36
2023/07/02 00:53:46;;;;;;;7.78;2.90;;;15.40;99.90;;;;;;4966637;28;20050;-36
2023/07/02 00:56:12;;;;;;;9.18;3.25;;;15.30;99.90;;;;;;4969815;28;20137;-36
2023/07/02 00:58:50;;;;;;;9.90;2.83;;;15.30;99.90;;;;;;4966773;28;20142;-41
2023/07/02 01:01:17;;;;;;;12.52;3.65;;;15.30;99.90;;;;;;4976322;28;20093;-37
2023/07/02 01:03:56;;;;;;;10.82;2.80;;;15.20;99.90;;;;;;4976493;28;20073;-36
2023/07/02 01:06:35;;;;;;;11.95;4.93;;;15.20;99.90;;;;;;4968674;28;20055;-36
2023/07/02 01:09:05;;;;;;;11.77;3.47;;;15.10;99.90;;;;;;4963486;28;20098;-36
2023/07/02 01:11:39;;;;;;;13.40;5.07;;;15.10;99.90;;;;;;4970628;28;20527;-36
2023/07/02 01:14:07;;;;;;;11.25;3.35;;;15.00;99.90;;;;;;4972417;28;20201;-36
2023/07/02 01:16:35;;;;;;;9.30;3.03;;;15.00;99.90;;;;;;4948225;28;20508;-36
2023/07/02 01:19:04;;;;;;;12.55;3.63;;;14.90;99.90;;;;;;4964631;28;20050;-36
2023/07/02 01:21:34;;;;;;;12.35;3.70;;;14.80;99.90;;;;;;4968275;28;20067;-36
2023/07/02 01:24:01;;;;;;;12.77;3.63;;;14.80;99.90;;;;;;4954294;28;20134;-36
2023/07/02 01:26:33;;;;;;;8.85;3.17;;;14.80;99.90;;;;;;4940212;28;20569;-36
2023/07/02 01:29:15;;;;;;;11.13;4.15;;;14.70;99.90;;;;;;4951708;28;20051;-36
2023/07/02 01:31:41;;;;;;;12.10;3.83;;;14.70;99.90;;;;;;4950783;28;20082;-38
2023/07/02 01:34:08;;;;;;;11.60;4.32;;;14.60;99.90;;;;;;4954117;28;20055;-37
2023/07/02 01:36:33;;;;;;;13.25;3.55;;;14.60;99.90;;;;;;4949322;28;20061;-37
2023/07/02 01:38:59;;;;;;;17.23;3.88;;;14.60;99.90;;;;;;4950339;28;20055;-37
2023/07/02 01:41:25;;;;;;;9.98;3.40;;;14.50;99.90;;;;;;4949406;28;20051;-36
2023/07/02 01:43:50;;;;;;;10.32;3.70;;;14.50;99.90;;;;;;4953218;28;20397;-36
2023/07/02 01:46:16;;;;;;;13.65;4.07;;;14.50;99.90;;;;;;4951381;28;20535;-36
2023/07/02 01:48:42;;;;;;;13.40;3.65;;;14.50;99.90;;;;;;4948677;28;20063;-36
2023/07/02 01:51:07;;;;;;;11.98;3.55;;;14.50;99.90;;;;;;4947159;28;20051;-40
2023/07/02 01:53:33;;;;;;;17.90;4.68;;;14.40;99.90;;;;;;4949620;28;20109;-36
2023/07/02 01:55:59;;;;;;;10.93;3.38;;;14.40;99.90;;;;;;4944152;28;20051;-36
2023/07/02 01:58:25;;;;;;;19.10;3.80;;;14.40;99.90;;;;;;4948665;28;20043;-36
2023/07/02 02:00:51;;;;;;;15.20;4.35;;;14.40;99.90;;;;;;4962829;28;20050;-36
2023/07/02 02:03:17;;;;;;;13.50;3.63;;;14.40;99.90;;;;;;4974132;28;20132;-36
2023/07/02 02:05:42;;;;;;;14.05;4.18;;;14.40;99.90;;;;;;4963817;28;20416;-36
2023/07/02 02:08:08;;;;;;;14.27;4.57;;;14.30;99.90;;;;;;4967213;28;20043;-36
2023/07/02 02:10:34;;;;;;;11.43;3.50;;;14.30;99.90;;;;;;4966717;28;20053;-36
2023/07/02 02:12:59;;;;;;;14.07;3.72;;;14.30;99.90;;;;;;4967655;28;20138;-37
2023/07/02 02:15:25;;;;;;;15.82;3.65;;;14.30;99.90;;;;;;4965690;28;20086;-36
2023/07/02 02:17:51;;;;;;;13.10;3.80;;;14.30;99.90;;;;;;4974117;28;20062;-35
2023/07/02 02:20:16;;;;;;;12.45;3.83;;;14.20;99.90;;;;;;4969440;28;20117;-37
2023/07/02 02:22:42;;;;;;;15.57;4.20;;;14.20;99.90;;;;;;4974712;28;20066;-37
2023/07/02 02:25:09;;;;;;;11.98;3.88;;;14.20;99.90;;;;;;4987232;28;20408;-36
2023/07/02 02:27:34;;;;;;;14.65;3.75;;;14.10;99.90;;;;;;4952104;28;20069;-36
2023/07/02 02:30:00;;;;;;;12.88;4.03;;;14.10;99.90;;;;;;4964546;28;20059;-36
2023/07/02 02:32:26;;;;;;;16.00;4.38;;;14.00;99.90;;;;;;4968782;28;20145;-36
2023/07/02 02:34:51;;;;;;;9.93;3.60;;;14.00;99.90;;;;;;4966547;28;20109;-36
2023/07/02 02:37:18;;;;;;;15.70;4.13;;;14.00;99.90;;;;;;4962877;28;20069;-36
2023/07/02 02:39:44;;;;;;;12.93;3.53;;;14.00;99.90;;;;;;4976570;28;20480;-36
2023/07/02 02:42:10;;;;;;;10.35;3.65;;;14.00;99.90;;;;;;4987737;28;20112;-36
2023/07/02 02:44:36;;;;;;;12.20;3.90;;;14.00;99.90;;;;;;4986397;28;20050;-36
2023/07/02 02:47:01;;;;;;;11.75;3.90;;;14.00;99.90;;;;;;4976273;28;20411;-36
2023/07/02 02:49:27;;;;;;;16.02;4.40;;;14.00;99.90;;;;;;4984764;28;20050;-36
2023/07/02 02:51:53;;;;;;;14.23;3.95;;;14.00;99.90;;;;;;4966320;28;20050;-37
2023/07/02 02:54:18;;;;;;;14.45;4.28;;;14.10;99.90;;;;;;4983397;28;20051;-36
2023/07/02 02:56:44;;;;;;;18.88;4.82;;;14.10;99.90;;;;;;4975467;28;20050;-38
2023/07/02 02:59:09;;;;;;;16.83;4.18;;;14.10;99.90;;;;;;4964714;28;20065;-36
2023/07/02 03:01:35;;;;;;;19.75;4.30;;;14.10;99.90;;;;;;4967893;28;20066;-36
2023/07/02 03:04:01;;;;;;;10.68;3.22;;;14.10;99.90;;;;;;4968421;28;20493;-36
2023/07/02 03:06:26;;;;;;;15.23;4.68;;;14.10;99.90;;;;;;4966641;28;20047;-36
2023/07/02 03:08:52;;;;;;;19.48;4.22;;;14.20;99.90;;;;;;4967344;28;20054;-36
2023/07/02 03:11:17;;;;;;;13.85;3.80;;;14.10;99.90;;;;;;4967135;28;20059;-36
2023/07/02 03:13:43;;;;;;;10.23;3.35;;;14.20;99.90;;;;;;4961439;28;20413;-36
2023/07/02 03:16:09;;;;;;;14.40;4.20;;;14.20;99.90;;;;;;4964550;28;20042;-38
2023/07/02 03:18:35;;;;;;;11.05;4.35;;;14.20;99.90;;;;;;4964386;28;20119;-36
2023/07/02 03:21:01;;;;;;;17.85;4.70;;;14.20;99.90;;;;;;4962517;28;20559;-36
2023/07/02 03:23:26;;;;;;;14.52;3.35;;;14.20;99.90;;;;;;4963599;28;20059;-37
2023/07/02 03:25:52;;;;;;;15.20;4.47;;;14.20;99.90;;;;;;4968251;28;20054;-37
2023/07/02 03:28:17;;;;;;;12.20;3.67;;;14.20;99.90;;;;;;4963739;28;20057;-37
2023/07/02 03:30:43;;;;;;;11.25;3.42;;;14.20;99.90;;;;;;4963769;28;20142;-37
2023/07/02 03:33:09;;;;;;;11.02;3.45;;;14.20;99.90;;;;;;4964461;28;21567;-37
2023/07/02 03:35:35;;;;;;;10.55;3.30;;;14.20;99.90;;;;;;4966056;28;20055;-37
2023/07/02 03:38:02;;;;;;;8.95;3.53;;;14.20;99.90;;;;;;4964196;28;20050;-37
2023/07/02 03:40:27;;;;;;;12.55;3.28;;;14.20;99.90;;;;;;4966971;28;20054;-37
2023/07/02 03:42:53;;;;;;;11.60;3.72;;;14.20;99.90;;;;;;4968731;28;20113;-37
2023/07/02 03:45:19;;;;;;;10.30;3.65;;;14.10;99.90;;;;;;4975047;28;20055;-37
2023/07/02 03:47:44;;;;;;;11.63;3.63;;;14.10;99.90;;;;;;4966913;28;20059;-37
2023/07/02 03:50:10;;;;;;;13.07;3.80;;;14.10;99.90;;;;;;4969860;28;20109;-37
2023/07/02 03:52:36;;;;;;;14.48;4.80;;;14.10;99.90;;;;;;4970332;28;20404;-37
2023/07/02 03:55:01;;;;;;;14.77;3.78;;;14.10;99.90;;;;;;4970898;28;20054;-37
2023/07/02 03:57:27;;;;;;;17.13;4.32;;;14.10;99.90;;;;;;4971469;28;20047;-37
2023/07/02 03:59:53;;;;;;;11.00;3.35;;;14.10;99.90;;;;;;4969556;28;20059;-37
2023/07/02 04:02:19;;;;;;;10.95;3.78;;;14.10;99.90;;;;;;4966073;28;20067;-37
2023/07/02 04:04:44;;;;;;;19.45;4.13;;;14.20;99.90;;;;;;4968103;28;20421;-37
2023/07/02 04:07:10;;;;;;;10.70;3.75;;;14.20;99.90;;;;;;4971182;28;20081;-37
2023/07/02 04:09:36;;;;;;;15.60;4.15;;;14.20;99.90;;;;;;4969928;28;20063;-37
2023/07/02 04:12:01;;;;;;;18.65;3.30;;;14.20;99.90;;;;;;4970616;28;20512;-37
2023/07/02 04:14:27;;;;;;;13.93;4.22;;;14.20;99.90;;;;;;4970545;28;20576;-37
2023/07/02 04:16:53;;;;;;;16.58;3.50;;;14.20;99.90;;;;;;4976662;28;20092;-36
2023/07/02 04:19:18;;;;;;;15.30;4.82;;;14.20;99.90;;;;;;4978807;28;20058;-36
2023/07/02 04:21:44;;;;;;;16.42;3.42;;;14.30;99.90;;;;;;4986091;28;20137;-37
2023/07/02 04:24:10;;;;;;;10.32;3.85;;;14.30;99.90;;;;;;4974319;28;20058;-37
2023/07/02 04:26:36;;;;;;;18.05;5.25;;;14.30;99.90;;;;;;4990157;28;20047;-37
2023/07/02 04:29:02;;;;;;;11.43;3.53;;;14.40;99.90;;;;;;4971584;28;20059;-37
2023/07/02 04:31:28;;;;;;;13.52;4.22;;;14.50;99.90;;;;;;4968204;28;20061;-37
2023/07/02 04:33:54;;;;;;;17.88;4.53;;;14.50;99.90;;;;;;4990824;28;20062;-44
2023/07/02 04:36:19;;;;;;;10.25;3.60;;;14.60;99.90;;;;;;4988376;28;20074;-37
2023/07/02 04:38:45;;;;;;;10.60;4.03;;;14.60;99.90;;;;;;4971805;28;20051;-37
2023/07/02 04:41:11;;;;;;;12.40;3.95;;;14.70;99.90;;;;;;4994315;28;20065;-37
2023/07/02 04:43:36;;;;;;;15.65;4.00;;;14.70;99.90;;;;;;4988199;28;20499;-37
2023/07/02 04:46:02;;;;;;;13.30;4.60;;;14.80;99.90;;;;;;4971951;28;20397;-37
2023/07/02 04:48:28;;;;;;;11.57;3.90;;;14.80;99.90;;;;;;4976166;28;20043;-37
2023/07/02 04:50:54;;;;;;;15.13;4.38;;;14.80;99.90;;;;;;4984423;28;20109;-37
2023/07/02 04:53:20;;;;;;;15.88;4.13;;;14.80;99.90;;;;;;4992988;28;20039;-36
2023/07/02 04:55:45;;;;;;;12.10;3.60;;;14.80;99.90;;;;;;4987619;28;20043;-36
2023/07/02 04:58:11;;;;;;;11.13;4.25;;;14.90;99.90;;;;;;4988229;28;20054;-36
2023/07/02 05:00:37;;;;;;;11.50;3.40;;;14.80;99.90;;;;;;4989313;28;20159;-36
2023/07/02 05:03:02;;;;;;;13.77;3.78;;;14.90;99.90;;;;;;4977413;28;20039;-36
2023/07/02 05:05:28;;;;;;;11.60;3.78;;;14.90;99.90;;;;;;4965896;28;20086;-36
2023/07/02 05:07:54;;;;;;;20.13;5.13;;;15.00;99.90;;;;;;4976349;28;20063;-36
2023/07/02 05:10:20;;;;;;;18.38;4.18;;;15.00;99.90;;;;;;4982488;28;20093;-36
2023/07/02 05:12:46;;;;;;;10.82;2.95;;;15.10;99.90;;;;;;4977950;28;20078;-36
2023/07/02 05:15:12;;;;;;;15.35;5.07;;;15.10;99.90;;;;;;4977411;28;20042;-37
2023/07/02 05:17:38;;;;;;;12.25;5.38;;;15.20;99.90;;;;;;4988667;28;20097;-36
2023/07/02 05:20:04;;;;;;;11.20;2.92;;;15.30;99.90;;;;;;4992192;28;20085;-36
2023/07/02 05:22:30;;;;;;;10.32;3.75;;;15.30;99.90;;;;;;4990984;28;20053;-36
2023/07/02 05:24:56;;;;;;;14.13;3.58;;;15.40;99.90;;;;;;4969784;28;20420;-36
2023/07/02 05:27:21;;;;;;;12.80;3.63;;;15.40;99.90;;;;;;4966491;28;20054;-41
2023/07/02 05:29:47;;;;;;;14.55;3.58;;;15.40;99.90;;;;;;4965025;28;20093;-36
2023/07/02 05:32:13;;;;;;;17.77;3.70;;;15.40;99.90;;;;;;4975513;28;20049;-35
2023/07/02 05:34:38;;;;;;;12.80;3.78;;;15.50;99.90;;;;;;4971842;28;20102;-36
2023/07/02 05:37:05;;;;;;;14.27;3.75;;;15.50;99.90;;;;;;4986481;28;20050;-36
2023/07/02 05:39:31;;;;;;;15.63;3.58;;;15.60;99.90;;;;;;4986698;28;20406;-36
2023/07/02 05:41:56;;;;;;;11.52;3.45;;;15.70;99.90;;;;;;4965989;28;20042;-35
2023/07/02 05:44:22;;;;;;;10.93;3.13;;;15.70;99.90;;;;;;4948895;28;20050;-36
2023/07/02 05:46:48;;;;;;;11.60;3.78;;;15.80;99.90;;;;;;4987372;28;20050;-36
2023/07/02 05:49:14;;;;;;;14.02;4.18;;;15.80;99.90;;;;;;4988936;28;20062;-36
2023/07/02 05:51:39;;;;;;;15.43;3.85;;;15.80;99.90;;;;;;4996916;28;20054;-36
2023/07/02 05:54:05;;;;;;;9.77;3.13;;;15.90;99.90;;;;;;4967385;28;20054;-36
2023/07/02 05:56:30;;;;;;;13.50;3.42;;;15.90;99.90;;;;;;4971403;28;20493;-36
2023/07/02 05:58:56;;;;;;;18.10;5.05;;;16.00;99.90;;;;;;4966497;28;20042;-36
2023/07/02 06:01:22;;;;;;;11.23;3.50;;;16.00;99.90;;;;;;4963965;28;20113;-36
2023/07/02 06:03:50;;;;;;;14.23;3.97;;;16.10;99.90;;;;;;4979507;28;20552;-36
2023/07/02 06:06:15;;;;;;;14.70;3.83;;;16.10;99.90;;;;;;4989953;28;20072;-36
2023/07/02 06:08:41;;;;;;;10.32;3.95;;;16.20;99.90;;;;;;4986506;28;20609;-36
2023/07/02 06:11:07;;;;;;;14.90;3.53;;;16.20;99.90;;;;;;4984539;28;20050;-35
2023/07/02 06:13:33;;;;;;;9.30;3.60;;;16.20;99.90;;;;;;4984998;28;20058;-35
2023/07/02 06:15:58;;;;;;;11.18;3.35;;;16.30;99.90;;;;;;4987577;28;20077;-36
2023/07/02 06:18:24;;;;;;;15.32;4.40;;;16.30;99.90;;;;;;4957342;28;20150;-36
2023/07/02 06:20:50;;;;;;;12.32;3.50;;;16.40;99.90;;;;;;4967224;28;20051;-36
2023/07/02 06:23:16;;;;;;;10.40;3.42;;;16.50;99.90;;;;;;4971420;28;20141;-36
2023/07/02 06:25:42;;;;;;;13.80;4.10;;;16.60;99.90;;;;;;4977437;28;20129;-36
2023/07/02 06:28:07;;;;;;;14.15;3.55;;;16.70;99.90;;;;;;4963228;28;21910;-36
2023/07/02 06:30:33;;;;;;;10.73;2.97;;;16.70;99.90;;;;;;4979990;28;21499;-35
2023/07/02 06:32:59;;;;;;;12.27;3.40;;;16.60;99.90;;;;;;4987267;28;20054;-35
2023/07/02 06:35:24;;;;;;;10.77;3.03;;;16.60;99.90;;;;;;4969566;28;20065;-36
2023/07/02 06:37:50;;;;;;;12.15;2.80;;;16.60;99.90;;;;;;4978242;28;20058;-36
2023/07/02 06:40:16;;;;;;;10.20;2.85;;;16.60;99.90;;;;;;4977002;28;20109;-36
2023/07/02 06:42:41;;;;;;;12.63;2.95;;;16.70;99.90;;;;;;4987562;28;20053;-37
2023/07/02 06:45:08;;;;;;;9.52;3.03;;;16.80;99.90;;;;;;4988480;28;20137;-36
2023/07/02 06:47:33;;;;;;;10.77;3.05;;;17.00;99.90;;;;;;4981919;28;20047;-36
2023/07/02 06:49:59;;;;;;;10.77;2.35;;;17.00;99.90;;;;;;4979319;28;20182;-36
2023/07/02 06:52:25;;;;;;;8.68;2.63;;;16.90;99.90;;;;;;4964219;28;20138;-36
2023/07/02 06:54:50;;;;;;;8.50;2.65;;;16.90;99.90;;;;;;4962417;28;20065;-36
2023/07/02 06:57:16;;;;;;;9.82;2.55;;;16.90;99.90;;;;;;4962736;28;20073;-36
2023/07/02 06:59:42;;;;;;;11.77;3.08;;;17.00;99.90;;;;;;4969182;28;20051;-36
2023/07/02 07:02:07;;;;;;;8.52;2.50;;;17.00;99.90;;;;;;4982317;28;20058;-36
2023/07/02 07:04:34;;;;;;;10.82;3.25;;;17.00;99.90;;;;;;4985704;28;20479;-36
2023/07/02 07:07:02;;;;;;;11.07;2.70;;;16.90;99.90;;;;;;4972785;28;20051;-36
2023/07/02 07:09:28;;;;;;;8.82;3.08;;;16.80;99.90;;;;;;4962827;28;20047;-36
2023/07/02 07:11:54;;;;;;;10.50;2.80;;;16.90;99.90;;;;;;4964942;28;20137;-36
2023/07/02 07:14:20;;;;;;;8.68;2.60;;;17.00;99.90;;;;;;4957736;28;20146;-36
2023/07/02 07:16:45;;;;;;;7.65;2.67;;;17.10;99.90;;;;;;4965804;28;20070;-36
2023/07/02 07:19:11;;;;;;;12.85;2.65;;;17.10;99.90;;;;;;4964794;28;20051;-36
2023/07/02 07:21:37;;;;;;;9.02;2.42;;;17.10;99.90;;;;;;4963534;28;20054;-35
2023/07/02 07:24:02;;;;;;;8.18;2.83;;;17.00;99.90;;;;;;4967070;28;20047;-36
2023/07/02 07:26:28;;;;;;;8.93;2.50;;;16.90;99.90;;;;;;4963074;28;20133;-36
2023/07/02 07:28:57;;;;;;;14.63;4.10;;;16.80;99.90;;;;;;4965992;28;20046;-36
2023/07/02 07:31:24;;;;;;;9.38;3.25;;;16.90;99.90;;;;;;4972635;28;20050;-35
2023/07/02 07:33:50;;;;;;;8.52;2.33;;;17.00;99.90;;;;;;4983735;28;20046;-36
2023/07/02 07:36:15;;;;;;;7.30;2.15;;;17.10;99.90;;;;;;4969521;28;20051;-36
2023/07/02 07:38:43;;;;;;;6.00;1.67;;;17.10;99.90;;;;;;4970521;28;20059;-36
2023/07/02 07:41:09;;;;;;;7.22;1.80;;;17.30;99.90;;;;;;4967383;28;20489;-36
2023/07/02 07:43:35;;;;;;;5.55;1.75;;;17.50;99.90;;;;;;4964176;28;20061;-36
2023/07/02 07:46:00;;;;;;;8.50;1.95;;;17.50;99.90;;;;;;4978029;28;20137;-36
2023/07/02 07:48:26;;;;;;;7.05;1.50;;;17.60;99.90;;;;;;4978216;28;20155;-36
2023/07/02 07:50:52;;;;;;;6.45;1.70;;;17.70;99.90;;;;;;4973167;28;20129;-42
2023/07/02 07:53:18;;;;;;;9.70;1.95;;;17.70;99.90;;;;;;4964166;28;20055;-36
2023/07/02 07:55:44;;;;;;;7.88;2.10;;;17.70;99.90;;;;;;4961568;28;20081;-35
2023/07/02 07:58:09;;;;;;;8.15;1.55;;;17.60;99.90;;;;;;4964265;28;20047;-35
2023/07/02 08:00:35;;;;;;;5.15;1.50;;;17.40;99.90;;;;;;4962933;28;20062;-35
2023/07/02 08:03:03;;;;;;;5.57;1.40;;;17.50;99.90;;;;;;4960257;28;20047;-36
2023/07/02 08:05:29;;;;;;;7.72;1.98;;;17.60;99.90;;;;;;4962993;28;20496;-36
2023/07/02 08:07:55;;;;;;;6.28;1.73;;;17.80;99.90;;;;;;4960335;28;20047;-36
2023/07/02 08:10:21;;;;;;;5.20;1.13;;;18.00;99.90;;;;;;4982390;28;20085;-35
2023/07/02 08:12:48;;;;;;;9.93;2.25;;;17.90;99.90;;;;;;4980007;28;20523;-36
2023/07/02 08:15:13;;;;;;;6.32;1.17;;;17.60;99.90;;;;;;4981056;28;20117;-36
2023/07/02 08:17:39;;;;;;;5.50;1.67;;;17.60;99.90;;;;;;4979321;28;20136;-36
2023/07/02 08:20:09;;;;;;;6.47;1.23;;;17.90;99.90;;;;;;4968809;28;20512;-36
2023/07/02 08:22:37;;;;;;;8.57;1.80;;;18.10;99.90;;;;;;4965563;28;20120;-36
2023/07/02 08:25:03;;;;;;;9.00;1.30;;;18.30;99.90;;;;;;4973752;28;20979;-36
2023/07/02 08:27:28;;;;;;;9.40;3.05;;;18.30;99.90;;;;;;4983805;28;20133;-36
2023/07/02 08:29:54;;;;;;;7.72;1.95;;;18.20;99.90;;;;;;4968229;28;20504;-36
2023/07/02 08:32:21;;;;;;;4.93;1.38;;;18.10;99.90;;;;;;4960575;28;20765;-35
2023/07/02 08:34:46;;;;;;;7.22;1.65;;;17.90;99.90;;;;;;4959959;28;20523;-35
2023/07/02 08:37:12;;;;;;;5.75;1.67;;;17.90;99.90;;;;;;4947140;28;20050;-36
2023/07/02 08:39:39;;;;;;;5.72;1.60;;;17.90;99.90;;;;;;4980724;28;20393;-36
2023/07/02 08:42:05;;;;;;;5.97;1.67;;;17.90;99.90;;;;;;4987909;28;20408;-36
2023/07/02 08:44:31;;;;;;;5.90;1.27;;;17.90;99.90;;;;;;4986430;28;20058;-35
2023/07/02 08:46:57;;;;;;;9.98;1.80;;;17.80;99.90;;;;;;4980653;28;20373;-36
2023/07/02 08:49:24;;;;;;;7.95;1.70;;;17.60;99.90;;;;;;4977675;28;20400;-36
2023/07/02 08:51:49;;;;;;;8.63;1.98;;;17.40;99.90;;;;;;4981387;28;20057;-35
2023/07/02 08:54:17;;;;;;;7.85;2.53;;;17.30;99.90;;;;;;4970797;28;20046;-35
2023/07/02 08:56:44;;;;;;;8.45;3.08;;;17.20;99.90;;;;;;4967312;28;20057;-35
2023/07/02 08:59:10;;;;;;;8.90;2.17;;;17.10;99.90;;;;;;4974179;28;20058;-36
2023/07/02 09:02:05;;;;;;;7.28;1.95;;;17.20;99.90;;;;;;4975461;28;20070;-36
2023/07/02 09:04:30;;;;;;;10.02;2.28;;;17.20;99.90;;;;;;4959962;28;20140;-36
2023/07/02 09:07:07;;;;;;;6.68;2.20;;;17.30;99.90;;;;;;4970983;28;20090;-36
2023/07/02 09:09:43;;;;;;;8.30;2.20;;;17.20;99.90;;;;;;4950857;28;20078;-36
2023/07/02 09:12:09;;;;;;;9.70;1.85;;;17.20;99.90;;;;;;4965221;28;20514;-36
2023/07/02 09:14:35;;;;;;;8.48;2.08;;;17.20;99.90;;;;;;4967206;28;20059;-36
2023/07/02 09:17:11;;;;;;;8.85;2.08;;;17.20;99.90;;;;;;4968258;28;20480;-36
2023/07/02 09:19:48;;;;;;;11.52;2.85;;;17.20;99.90;;;;;;4963834;28;20109;-36
2023/07/02 09:22:15;;;;;;;9.90;2.60;;;17.20;99.90;;;;;;4971115;28;20061;-36
2023/07/02 09:24:41;;;;;;;7.03;2.42;;;17.30;99.90;;;;;;4961490;28;20058;-36
2023/07/02 09:27:07;;;;;;;9.25;1.88;;;17.40;99.90;;;;;;4981186;28;20105;-36
2023/07/02 09:29:34;;;;;;;7.35;1.90;;;17.50;99.90;;;;;;4987998;28;20046;-36
2023/07/02 09:32:02;;;;;;;6.72;2.33;;;17.70;99.90;;;;;;4984303;28;20050;-36
2023/07/02 09:34:33;;;;;;;7.97;1.63;;;17.90;99.90;;;;;;4985805;28;20034;-36
2023/07/02 09:37:00;;;;;;;7.70;1.90;;;18.20;99.90;;;;;;4975507;28;20046;-36
2023/07/02 09:39:31;;;;;;;7.38;1.90;;;18.40;99.90;;;;;;4974462;28;20058;-36
2023/07/02 09:41:59;;;;;;;7.57;1.70;;;18.50;99.90;;;;;;4982259;28;20492;-36
2023/07/02 09:44:29;;;;;;;7.68;1.88;;;18.40;99.90;;;;;;4965920;28;20043;-36
2023/07/02 09:47:05;;;;;;;9.57;1.63;;;18.20;99.90;;;;;;4964904;28;20068;-36
2023/07/02 09:49:57;;;;;;;6.20;1.27;;;18.10;99.90;;;;;;4964629;28;20057;-36
2023/07/02 09:52:23;;;;;;;;;;;18.00;99.90;;;;;;4973661;28;20057;-36
2023/07/02 09:54:49;;;;;;;7.60;1.70;;;17.90;99.90;;;;;;4976687;28;19921;-36
2023/07/02 09:57:15;;;;;;;5.25;1.35;;;17.90;99.90;;;;;;4972896;28;20050;-36
2023/07/02 09:59:41;;;;;;;3.70;1.08;;;17.90;99.90;;;;;;4968363;28;20065;-36
2023/07/02 10:02:09;;;;;;;7.43;2.25;;;18.00;99.90;;;;;;4972232;28;20042;-36
2023/07/02 10:04:46;;;;;;;4.75;1.38;;;18.20;99.90;;;;;;4984825;28;20108;-36
2023/07/02 10:07:13;;;;;;;15.82;2.20;;;18.30;99.90;;;;;;4965363;28;20055;-36
2023/07/02 10:09:40;;;;;;;5.97;1.60;;;18.50;99.90;;;;;;4968917;28;20062;-36
2023/07/02 10:12:19;;;;;;;5.50;1.73;;;18.50;99.90;;;;;;4965969;28;20054;-36
2023/07/02 10:14:46;;;;;;;9.55;1.98;;;18.60;99.90;;;;;;4974963;28;20050;-36
2023/07/02 10:17:23;;;;;;;7.43;2.17;;;18.80;99.90;;;;;;4985516;28;20054;-36
2023/07/02 10:19:53;;;;;;;5.47;1.48;;;18.70;99.90;;;;;;4964688;28;20050;-36
2023/07/02 10:22:19;;;;;;;5.75;1.70;;;18.80;99.90;;;;;;4968471;28;20053;-36
2023/07/02 10:25:00;;;;;;;7.70;1.63;;;18.90;99.90;;;;;;4966375;28;20047;-36
2023/07/02 10:27:42;;;;;;;9.73;2.22;;;19.20;99.90;;;;;;4960458;28;20102;-36
2023/07/02 10:30:09;;;;;;;9.60;1.60;;;19.00;99.90;;;;;;4971064;28;20105;-36
2023/07/02 10:32:36;;;;;;;9.32;2.03;;;19.10;99.90;;;;;;4981911;28;20154;-36
2023/07/02 10:35:15;;;;;;;4.07;1.15;;;19.20;99.90;;;;;;4953884;28;20118;-36
2023/07/02 10:37:41;;;;;;;7.32;1.58;;;19.30;99.90;;;;;;4969491;28;20476;-36
2023/07/02 10:40:09;;;;;;;5.28;1.60;;;19.30;99.90;;;;;;4982452;28;20833;-36
2023/07/02 10:42:55;;;;;;;7.35;1.17;;;19.20;99.90;;;;;;4964138;28;20076;-37
2023/07/02 10:45:31;;;;;;;8.60;1.60;;;19.40;99.90;;;;;;4976822;28;20045;-36
2023/07/02 10:47:57;;;;;;;2.83;1.42;;;19.50;99.90;;;;;;4947402;28;20073;-36
2023/07/02 10:50:23;;;;;;;5.20;1.17;;;19.60;99.90;;;;;;4967535;28;20062;-37
2023/07/02 10:52:52;;;;;;;9.50;1.67;;;19.60;99.90;;;;;;4966503;28;20051;-36
2023/07/02 10:55:22;;;;;;;6.60;1.20;;;19.60;99.90;;;;;;4977172;28;20538;-37
2023/07/02 10:57:50;;;;;;;8.15;1.42;;;19.70;99.90;;;;;;4972642;28;20059;-36
2023/07/02 11:00:17;;;;;;;4.80;1.75;;;19.70;99.90;;;;;;4956787;28;20059;-37
2023/07/02 11:02:43;;;;;;;6.45;1.25;;;19.80;99.90;;;;;;4982639;28;20062;-37
2023/07/02 11:05:12;;;;;;;7.03;1.35;;;20.00;99.90;;;;;;4981462;28;20069;-37
2023/07/02 11:07:39;;;;;;;8.52;1.60;;;20.00;99.90;;;;;;4980686;28;20128;-36
2023/07/02 11:10:06;;;;;;;9.15;1.67;;;20.00;99.90;;;;;;4974992;28;20117;-37
2023/07/02 11:12:33;;;;;;;5.28;1.40;;;20.10;99.90;;;;;;4967084;28;20085;-37
2023/07/02 11:15:09;;;;;;;5.78;2.35;;;19.90;99.90;;;;;;4967952;28;20054;-37
2023/07/02 11:17:35;;;;;;;5.82;1.75;;;20.00;99.90;;;;;;4971248;28;20492;-36
2023/07/02 11:20:00;;;;;;;5.07;1.38;;;20.00;99.90;;;;;;4987155;28;20141;-36
2023/07/02 11:22:33;;;;;;;3.20;0.98;;;20.10;99.90;;;;;;4973817;28;20051;-36
2023/07/02 11:25:26;;;;;;;8.32;1.10;;;20.10;99.90;;;;;;4981443;28;20057;-36
2023/07/02 11:28:02;;;;;;;3.50;1.42;;;20.00;99.90;;;;;;4969933;28;20069;-37
2023/07/02 11:30:28;;;;;;;3.88;1.15;;;19.80;99.90;;;;;;4966494;28;20181;-37
2023/07/02 11:32:54;;;;;;;8.65;1.60;;;19.80;99.90;;;;;;4964563;28;20464;-36
2023/07/02 11:35:21;;;;;;;6.38;1.40;;;19.70;99.90;;;;;;4967872;28;20050;-36
2023/07/02 11:37:51;;;;;;;5.90;1.30;;;19.60;99.90;;;;;;4978463;28;20423;-36
2023/07/02 11:40:19;;;;;;;5.15;1.30;;;19.50;99.90;;;;;;4971312;28;20158;-37
2023/07/02 11:42:45;;;;;;;5.80;1.58;;;19.30;99.90;;;;;;4963801;28;20512;-36
2023/07/02 11:45:11;;;;;;;4.30;0.90;;;19.20;99.90;;;;;;4980429;28;20047;-37
2023/07/02 11:47:38;;;;;;;7.65;0.90;;;18.90;99.90;;;;;;4969527;28;20085;-36
2023/07/02 11:50:04;;;;;;;5.80;1.48;;;19.00;99.90;;;;;;4971015;28;20065;-36
2023/07/02 11:52:30;;;;;;;11.13;1.20;;;19.10;99.90;;;;;;4968400;28;20101;-36
2023/07/02 11:54:55;;;;;;;3.17;1.25;;;19.10;99.90;;;;;;4966259;28;20539;-36
2023/07/02 11:57:23;;;;;;;4.95;1.15;;;19.10;99.90;;;;;;4966083;28;20150;-36
2023/07/02 11:59:49;;;;;;;5.80;1.45;;;19.40;99.90;;;;;;4964096;28;20054;-36
2023/07/02 12:02:15;;;;;;;4.28;1.38;;;19.60;99.90;;;;;;4966395;28;20065;-36
2023/07/02 12:04:42;;;;;;;7.50;1.42;;;19.70;99.90;;;;;;4965637;28;20134;-36
2023/07/02 12:07:07;;;;;;;5.55;0.90;;;19.50;99.90;;;;;;4965986;28;20393;-36
2023/07/02 12:09:33;;;;;;;4.38;1.33;;;19.30;99.90;;;;;;4964325;28;20061;-36
2023/07/02 12:11:59;;;;;;;5.43;1.40;;;19.30;99.90;;;;;;4961861;28;20143;-36
2023/07/02 12:14:24;;;;;;;4.15;1.27;;;19.50;99.90;;;;;;4970767;28;20053;-36
2023/07/02 12:16:50;;;;;;;4.45;1.33;;;19.50;99.90;;;;;;4969253;28;20419;-36
2023/07/02 12:19:16;;;;;;;5.38;2.92;;;19.50;99.90;;;;;;4962942;28;20051;-36
2023/07/02 12:21:41;;;;;;;6.15;1.75;;;19.40;99.90;;;;;;4968533;28;20054;-36
2023/07/02 12:24:09;;;;;;;8.05;1.65;;;19.50;99.90;;;;;;4967860;28;20420;-36
2023/07/02 12:26:36;;;;;;;9.00;2.60;;;19.40;99.90;;;;;;4980338;28;20057;-36
2023/07/02 12:29:02;;;;;;;5.80;1.38;;;19.30;99.90;;;;;;4982294;28;20062;-36
2023/07/02 12:31:27;;;;;;;4.68;1.30;;;19.20;99.90;;;;;;4967303;28;20049;-36
2023/07/02 12:33:53;;;;;;;3.85;1.27;;;19.10;99.90;;;;;;4965670;28;20078;-36
2023/07/02 12:36:19;;;;;;;8.02;1.92;;;19.00;99.90;;;;;;4965154;28;20042;-36
2023/07/02 12:38:44;;;;;;;9.90;1.90;;;19.00;99.90;;;;;;4963287;28;20481;-36
2023/07/02 12:41:10;;;;;;;6.95;1.58;;;19.10;99.90;;;;;;4984207;28;20061;-36
2023/07/02 12:43:35;;;;;;;9.02;2.05;;;19.10;99.90;;;;;;4977529;28;20043;-36